Bookmark and Share
Track history (hours):
 

Spellbound

More information available from US FCC via Universal Licensing System and Coast Guard Vessel Documentation Center.

Last reported at 2013-Oct-22 00:29 UTC. Time now 2014-Apr-17 12:47 UTC.
Position N 39°33' W 072°36'.
Warning: this ship's position is months out of date.

Type: Pleasure craft. MMSI: 367432110.

NotesDate/timePositionNaut miles runAvg speedWind from/ knotsBaromVisibWave heightAir tempDewpointWater temp
2013-Oct-22 00:29N 39°33' W 072°36'25 4.8
2013-Oct-21 19:20N 39°53' W 072°18'25 4.3
2013-Oct-21 13:30N 40°16' W 072°04'7 5.4
2013-Oct-21 12:10N 40°22' W 071°59'4 4.4
2013-Oct-21 11:10N 40°25' W 071°55'2 3.6
2013-Oct-21 10:31N 40°27' W 071°53'4 3.6
2013-Oct-21 09:33N 40°30' W 071°50'3 3.4
2013-Oct-21 08:32N 40°33' W 071°48'3 2.9
2013-Oct-21 07:33N 40°35' W 071°46'3 3.2
2013-Oct-21 06:33N 40°38' W 071°44'4 3.7
2013-Oct-21 05:33N 40°40' W 071°40'3 3.0
2013-Oct-21 04:33N 40°42' W 071°37'3 2.8
2013-Oct-21 03:33N 40°45' W 071°35'3 3.3
2013-Oct-21 02:33N 40°47' W 071°32'3 3.0
2013-Oct-21 01:33N 40°50' W 071°30'3 3.2
2013-Oct-21 00:33N 40°53' W 071°28'4 3.7
2013-Oct-20 23:33N 40°56' W 071°26'4 4.0
2013-Oct-20 22:33N 40°60' W 071°24'6 5.9
2013-Oct-20 21:33N 41°05' W 071°23'8 7.8
2013-Oct-20 20:33N 41°13' W 071°23'8 7.7
2013-Oct-20 19:33N 41°21' W 071°25'6 6.3
2013-Oct-20 18:33N 41°27' W 071°25'1 0.0
2013-Oct-19 05:33N 41°26' W 071°23'5 4.8
2013-Oct-19 04:33N 41°25' W 071°17'5 4.5
2013-Oct-19 03:33N 41°25' W 071°11'5 4.0
2013-Oct-19 02:26N 41°23' W 071°05'5 3.8
2013-Oct-19 01:09N 41°25' W 070°59'137 4.6
2013-Oct-17 19:21N 43°37' W 070°11'  

Dump ship's entire track history

sailing weather and tide predictions

Spellbound — WDF2806 — position and weather